Time;durP1;ratioP1;P1;durP2;ratioP2;P2;SDS_P1;SDS_P2;PMS_P1;PMS_P2;Temp;Humidity;BMP_temperature;BMP_pressure;BME280_temperature;BME280_humidity;BME280_pressure;Samples;Min_cycle;Max_cycle;Signal;HPM_P1;HPM_P2
2021/09/15 00:01:47;;;;;;;10.40;8.43;;;19.80;99.90;;;;;;5055029;28;20558;-61
2021/09/15 00:04:14;;;;;;;10.30;8.73;;;19.70;99.90;;;;;;5055039;28;20209;-61
2021/09/15 00:06:42;;;;;;;9.70;8.70;;;19.70;1.00;;;;;;5054457;28;20283;-62
2021/09/15 00:09:09;;;;;;;10.63;8.67;;;19.70;99.90;;;;;;5053985;28;20217;-62
2021/09/15 00:11:35;;;;;;;12.33;9.43;;;19.70;99.90;;;;;;5054530;28;20225;-61
2021/09/15 00:14:02;;;;;;;10.30;8.67;;;19.70;1.00;;;;;;5054465;28;20213;-62
2021/09/15 00:16:29;;;;;;;10.63;8.97;;;19.70;1.00;;;;;;5054362;28;20889;-61
2021/09/15 00:18:56;;;;;;;10.67;8.37;;;19.70;6.90;;;;;;5054497;28;20697;-61
2021/09/15 00:21:23;;;;;;;10.93;8.90;;;19.70;58.80;;;;;;5054291;28;20729;-62
2021/09/15 00:23:51;;;;;;;11.27;8.93;;;19.60;1.00;;;;;;5054389;28;20677;-62
2021/09/15 00:26:17;;;;;;;10.50;9.20;;;19.60;99.90;;;;;;5053867;28;20786;-62
2021/09/15 00:28:44;;;;;;;13.07;8.97;;;19.60;99.90;;;;;;5054451;28;20422;-62
2021/09/15 00:31:10;;;;;;;13.70;8.87;;;19.60;77.90;;;;;;5054541;28;20263;-61
2021/09/15 00:33:37;;;;;;;11.43;9.80;;;19.60;99.90;;;;;;5054217;28;20724;-62
2021/09/15 00:36:04;;;;;;;11.33;9.60;;;19.60;1.00;;;;;;5053926;28;20271;-61
2021/09/15 00:38:31;;;;;;;14.77;9.10;;;19.50;99.90;;;;;;5054234;28;20221;-62
2021/09/15 00:40:58;;;;;;;11.17;9.30;;;19.50;1.00;;;;;;5053952;28;20205;-62
2021/09/15 00:43:25;;;;;;;11.23;9.20;;;19.50;99.90;;;;;;5054145;28;20210;-62
2021/09/15 00:45:52;;;;;;;12.17;9.23;;;19.50;99.90;;;;;;5053740;28;20709;-61
2021/09/15 00:48:18;;;;;;;10.03;8.70;;;19.50;99.90;;;;;;5054011;28;20252;-61
2021/09/15 00:50:45;;;;;;;10.73;9.43;;;19.50;1.00;;;;;;5053863;28;20210;-61
2021/09/15 00:53:12;;;;;;;11.93;9.27;;;19.60;99.90;;;;;;5053793;28;20719;-62
2021/09/15 00:55:39;;;;;;;14.33;9.57;;;19.60;99.90;;;;;;5053493;28;20275;-61
2021/09/15 00:58:07;;;;;;;11.23;9.47;;;19.60;99.90;;;;;;5053835;28;20271;-62
2021/09/15 01:00:33;;;;;;;10.67;9.10;;;19.50;99.90;;;;;;5053775;28;20255;-62
2021/09/15 01:03:00;;;;;;;10.73;8.77;;;19.50;1.00;;;;;;5053678;28;20723;-62
2021/09/15 01:05:27;;;;;;;10.50;9.00;;;19.60;99.90;;;;;;5053164;28;20697;-61
2021/09/15 01:07:56;;;;;;;10.00;9.00;;;19.60;99.90;;;;;;5053473;28;20259;-62
2021/09/15 01:10:23;;;;;;;10.97;9.13;;;19.60;99.90;;;;;;5053570;28;20243;-62
2021/09/15 01:12:52;;;;;;;12.83;9.07;;;19.60;99.90;;;;;;5053409;28;20568;-62
2021/09/15 01:15:20;;;;;;;11.90;9.37;;;19.60;99.90;;;;;;5053097;28;20775;-62
2021/09/15 01:17:47;;;;;;;11.63;9.13;;;19.60;99.90;;;;;;5053236;28;20229;-62
2021/09/15 01:20:13;;;;;;;11.00;9.90;;;19.60;99.90;;;;;;5052697;28;20205;-62
2021/09/15 01:22:41;;;;;;;12.97;9.47;;;19.60;99.90;;;;;;5052493;28;20252;-62
2021/09/15 01:25:08;;;;;;;15.10;10.37;;;19.60;99.90;;;;;;5053175;28;20213;-62
2021/09/15 01:27:35;;;;;;;12.03;9.67;;;19.60;99.90;;;;;;5053298;28;20669;-61
2021/09/15 01:30:02;;;;;;;12.93;10.27;;;19.60;99.90;;;;;;5053175;28;20240;-62
2021/09/15 01:32:28;;;;;;;10.70;9.53;;;19.60;99.90;;;;;;5053199;28;20210;-61
2021/09/15 01:34:55;;;;;;;12.73;8.97;;;19.70;99.90;;;;;;5052863;28;20248;-62
2021/09/15 01:37:22;;;;;;;13.23;9.03;;;19.70;99.90;;;;;;5052994;28;20287;-61
2021/09/15 01:39:50;;;;;;;10.77;9.17;;;19.70;99.90;;;;;;5053227;28;20206;-61
2021/09/15 01:42:17;;;;;;;10.73;9.30;;;19.70;99.90;;;;;;5052955;28;20263;-61
2021/09/15 01:44:45;;;;;;;10.17;8.77;;;19.60;1.00;;;;;;5052731;28;20292;-61
2021/09/15 01:47:14;;;;;;;10.80;9.43;;;19.60;1.00;;;;;;5052810;28;20287;-62
2021/09/15 01:49:42;;;;;;;14.43;9.67;;;19.60;1.00;;;;;;5052519;28;20734;-62
2021/09/15 01:52:10;;;;;;;10.77;9.13;;;19.60;1.00;;;;;;5052883;28;20255;-62
2021/09/15 01:54:37;;;;;;;10.80;9.10;;;19.60;1.00;;;;;;5052676;28;20201;-61
2021/09/15 01:57:05;;;;;;;10.67;9.57;;;19.60;1.00;;;;;;5052660;28;20275;-62
2021/09/15 01:59:32;;;;;;;10.20;9.10;;;19.60;1.00;;;;;;5052472;28;20232;-62
2021/09/15 02:01:59;;;;;;;9.83;8.93;;;19.60;1.00;;;;;;5052491;28;20665;-61
2021/09/15 02:04:26;;;;;;;12.47;9.20;;;19.70;1.00;;;;;;5052522;28;20205;-62
2021/09/15 02:06:54;;;;;;;10.40;9.30;;;19.70;1.00;;;;;;5052424;28;20276;-62
2021/09/15 02:09:21;;;;;;;11.87;9.43;;;19.70;99.90;;;;;;5052413;28;20201;-61
2021/09/15 02:11:48;;;;;;;10.77;9.33;;;19.80;99.90;;;;;;5052459;28;20205;-62
2021/09/15 02:14:16;;;;;;;13.47;9.70;;;19.80;49.30;;;;;;5052412;28;20206;-62
2021/09/15 02:16:43;;;;;;;10.53;8.87;;;19.80;1.00;;;;;;5051900;28;20582;-62
2021/09/15 02:19:10;;;;;;;13.83;9.27;;;19.80;1.00;;;;;;5052250;28;20229;-61
2021/09/15 02:21:37;;;;;;;10.50;9.33;;;19.80;1.00;;;;;;5052329;28;20624;-62
2021/09/15 02:24:04;;;;;;;10.27;9.17;;;19.80;1.00;;;;;;5052180;28;20255;-62
2021/09/15 02:26:31;;;;;;;9.83;8.77;;;19.90;99.90;;;;;;5052012;28;20241;-61
2021/09/15 02:28:58;;;;;;;13.60;9.87;;;19.90;99.90;;;;;;5052161;28;20291;-62
2021/09/15 02:31:26;;;;;;;14.13;9.13;;;19.90;99.90;;;;;;5052037;28;20205;-61
2021/09/15 02:33:53;;;;;;;11.07;9.07;;;19.90;99.90;;;;;;5051909;28;20644;-62
2021/09/15 02:36:20;;;;;;;10.23;8.67;;;19.80;99.90;;;;;;5051715;28;20233;-62
2021/09/15 02:38:47;;;;;;;11.63;9.80;;;19.80;99.90;;;;;;5051856;28;20226;-62
2021/09/15 02:41:14;;;;;;;10.07;9.07;;;19.80;1.00;;;;;;5051955;28;20587;-62
2021/09/15 02:43:42;;;;;;;10.73;8.70;;;19.80;1.00;;;;;;5051836;28;20208;-62
2021/09/15 02:46:08;;;;;;;11.83;9.90;;;19.70;67.50;;;;;;5051756;28;20229;-62
2021/09/15 02:48:37;;;;;;;13.47;9.07;;;19.70;99.90;;;;;;5051964;28;20197;-61
2021/09/15 02:51:04;;;;;;;11.77;9.20;;;19.70;99.90;;;;;;5051832;28;20260;-62
2021/09/15 02:53:31;;;;;;;13.07;9.60;;;19.70;1.00;;;;;;5051971;28;20209;-62
2021/09/15 02:55:58;;;;;;;11.23;10.03;;;19.60;1.00;;;;;;5051553;28;20775;-61
2021/09/15 02:58:24;;;;;;;11.07;9.93;;;19.60;83.30;;;;;;5051506;28;20295;-62
2021/09/15 03:00:51;;;;;;;13.03;9.50;;;19.60;1.00;;;;;;5051974;28;20562;-62
2021/09/15 03:03:18;;;;;;;10.67;9.07;;;19.60;37.00;;;;;;5051559;28;20720;-61
2021/09/15 03:05:46;;;;;;;10.77;9.50;;;19.60;6.50;;;;;;5051579;28;20256;-62
2021/09/15 03:08:12;;;;;;;9.70;8.70;;;19.60;1.00;;;;;;5051696;28;20209;-62
2021/09/15 03:10:39;;;;;;;10.57;9.30;;;19.70;1.00;;;;;;5052015;28;20205;-62
2021/09/15 03:13:06;;;;;;;10.83;8.90;;;19.70;1.00;;;;;;5051478;28;20267;-62
2021/09/15 03:15:32;;;;;;;10.23;9.23;;;19.70;1.00;;;;;;5051635;28;20279;-62
2021/09/15 03:17:59;;;;;;;12.00;9.90;;;19.70;1.00;;;;;;5051419;28;20225;-62
2021/09/15 03:20:26;;;;;;;12.93;10.03;;;19.70;1.00;;;;;;5051690;28;20201;-62
2021/09/15 03:22:54;;;;;;;11.40;9.80;;;19.70;1.00;;;;;;5051546;28;20209;-62
2021/09/15 03:25:20;;;;;;;10.20;9.20;;;19.60;80.60;;;;;;5051350;28;20232;-62
2021/09/15 03:27:47;;;;;;;10.73;9.67;;;19.60;99.90;;;;;;5051440;28;20601;-62
2021/09/15 03:30:14;;;;;;;12.37;9.87;;;19.60;99.90;;;;;;5051554;28;20580;-62
2021/09/15 03:32:41;;;;;;;13.10;10.10;;;19.60;99.90;;;;;;5051600;28;20252;-62
2021/09/15 03:35:08;;;;;;;10.63;9.60;;;19.60;99.90;;;;;;5051321;28;20214;-62
2021/09/15 03:37:35;;;;;;;13.33;10.00;;;19.50;1.00;;;;;;5051449;28;20230;-62
2021/09/15 03:40:04;;;;;;;13.13;10.07;;;19.50;1.00;;;;;;5051140;28;20275;-62
2021/09/15 03:42:31;;;;;;;10.93;9.83;;;19.50;1.00;;;;;;5051570;28;20213;-62
2021/09/15 03:44:57;;;;;;;11.77;10.47;;;19.50;1.00;;;;;;5053128;28;20209;-61
2021/09/15 03:47:24;;;;;;;11.50;10.30;;;19.50;1.00;;;;;;5055137;28;20233;-62
2021/09/15 03:49:51;;;;;;;13.10;10.30;;;19.40;1.00;;;;;;5055058;28;20206;-62
2021/09/15 03:52:17;;;;;;;13.77;10.77;;;19.40;1.00;;;;;;5055008;28;20210;-61
2021/09/15 03:54:44;;;;;;;11.93;10.73;;;19.40;64.00;;;;;;5054686;28;20209;-62
2021/09/15 03:57:12;;;;;;;12.00;10.63;;;19.40;99.90;;;;;;5055170;28;20237;-62
2021/09/15 03:59:39;;;;;;;13.63;10.67;;;19.40;99.90;;;;;;5054952;28;20667;-61
2021/09/15 04:02:06;;;;;;;11.90;10.57;;;19.40;99.90;;;;;;5054865;28;20626;-62
2021/09/15 04:04:32;;;;;;;15.90;10.67;;;19.40;99.90;;;;;;5054835;28;20209;-62
2021/09/15 04:06:59;;;;;;;15.40;11.50;;;19.40;99.90;;;;;;5054461;28;20230;-61
2021/09/15 04:09:25;;;;;;;11.83;10.50;;;19.40;99.90;;;;;;5053592;28;20205;-62
2021/09/15 04:11:52;;;;;;;12.23;10.27;;;19.40;99.90;;;;;;5054970;28;20209;-62
2021/09/15 04:14:22;;;;;;;12.20;10.70;;;19.40;99.90;;;;;;5054928;28;20233;-62
2021/09/15 04:16:49;;;;;;;14.47;10.60;;;19.40;99.90;;;;;;5054220;28;20243;-62
2021/09/15 04:19:16;;;;;;;12.67;10.60;;;19.40;99.90;;;;;;5054317;28;20270;-62
2021/09/15 04:21:43;;;;;;;12.10;10.90;;;19.50;99.90;;;;;;5054254;28;20212;-62
2021/09/15 04:32:20;;;;;;;13.10;11.23;;;19.50;99.90;;;;;;5056601;28;20298;-61
2021/09/15 04:34:47;;;;;;;14.70;13.20;;;19.50;99.90;;;;;;5054070;28;20271;-61
2021/09/15 04:37:13;;;;;;;14.00;11.23;;;19.40;99.90;;;;;;5057950;28;20225;-61
2021/09/15 04:39:40;;;;;;;14.43;11.33;;;19.50;99.90;;;;;;5053897;28;20283;-61
2021/09/15 04:42:06;;;;;;;16.23;12.60;;;19.50;99.90;;;;;;5054008;28;20209;-61
2021/09/15 04:44:33;;;;;;;12.83;11.20;;;19.40;99.90;;;;;;5053540;28;20874;-61
2021/09/15 04:47:01;;;;;;;15.00;11.27;;;19.40;99.90;;;;;;5053897;28;20859;-61
2021/09/15 04:49:28;;;;;;;16.50;11.30;;;19.40;99.90;;;;;;5054068;28;20335;-61
2021/09/15 04:51:54;;;;;;;12.80;11.43;;;19.30;99.90;;;;;;5053917;28;20715;-61
2021/09/15 04:54:21;;;;;;;13.07;11.63;;;19.20;99.90;;;;;;5053856;28;20244;-61
2021/09/15 04:56:48;;;;;;;13.80;11.87;;;19.20;1.00;;;;;;5053581;28;20230;-61
2021/09/15 04:59:14;;;;;;;13.47;11.40;;;19.20;1.00;;;;;;5053416;28;20232;-61
2021/09/15 05:01:41;;;;;;;16.20;11.53;;;19.20;1.00;;;;;;5053914;28;20210;-60
2021/09/15 05:04:09;;;;;;;13.30;11.53;;;19.20;1.00;;;;;;5053911;28;20209;-61
2021/09/15 05:06:35;;;;;;;14.90;12.50;;;19.20;1.00;;;;;;5052519;28;20217;-67
2021/09/15 05:09:02;;;;;;;15.87;12.93;;;19.20;1.00;;;;;;5052093;28;20248;-61
2021/09/15 05:11:29;;;;;;;13.60;12.13;;;19.20;1.00;;;;;;5068851;28;20577;-61
2021/09/15 05:13:55;;;;;;;17.70;12.40;;;19.20;1.00;;;;;;5073229;28;20201;-60
2021/09/15 05:16:22;;;;;;;15.93;12.23;;;19.20;1.00;;;;;;5073096;28;20278;-60
2021/09/15 05:18:49;;;;;;;14.97;12.43;;;19.20;1.00;;;;;;5073276;28;20227;-60
2021/09/15 05:21:17;;;;;;;14.07;12.50;;;19.20;1.00;;;;;;5073285;28;20201;-60
2021/09/15 05:23:43;;;;;;;16.17;13.33;;;19.10;1.00;;;;;;5073048;28;20205;-63
2021/09/15 05:26:10;;;;;;;15.03;13.40;;;19.20;1.00;;;;;;5062253;28;20271;-64
2021/09/15 05:28:37;;;;;;;14.53;12.73;;;19.20;1.00;;;;;;5055022;28;20206;-62
2021/09/15 05:31:03;;;;;;;13.57;12.17;;;19.10;1.00;;;;;;5053200;28;20208;-62
2021/09/15 05:33:30;;;;;;;19.73;13.87;;;19.10;1.00;;;;;;5053133;28;20231;-62
2021/09/15 05:35:57;;;;;;;15.13;13.63;;;19.10;1.00;;;;;;5052376;28;20240;-63
2021/09/15 05:38:25;;;;;;;16.87;13.93;;;19.10;1.00;;;;;;5052975;28;20209;-62
2021/09/15 05:40:51;;;;;;;15.60;13.70;;;19.10;1.00;;;;;;5054765;28;20210;-62
2021/09/15 05:43:18;;;;;;;16.43;14.63;;;19.10;3.30;;;;;;5072967;28;20209;-62
2021/09/15 05:45:45;;;;;;;18.87;14.97;;;19.10;18.40;;;;;;5071732;28;20228;-64
2021/09/15 05:48:12;;;;;;;17.07;14.30;;;19.10;31.90;;;;;;5072477;28;20295;-65
2021/09/15 05:50:38;;;;;;;21.27;15.90;;;19.00;47.20;;;;;;5072328;28;20552;-60
2021/09/15 05:53:05;;;;;;;18.00;15.33;;;19.00;56.50;;;;;;5072573;28;20269;-65
2021/09/15 05:55:33;;;;;;;17.63;15.53;;;19.00;74.00;;;;;;5071582;28;20215;-60
2021/09/15 05:58:00;;;;;;;18.03;15.30;;;19.00;92.30;;;;;;5072466;28;20216;-69
2021/09/15 06:00:27;;;;;;;19.07;15.73;;;19.10;95.50;;;;;;5072342;28;20265;-64
2021/09/15 06:02:55;;;;;;;19.43;15.70;;;19.00;99.90;;;;;;5072296;28;20209;-67
2021/09/15 06:05:22;;;;;;;17.30;15.40;;;19.00;99.90;;;;;;5064468;28;20316;-66
2021/09/15 06:07:49;;;;;;;18.33;15.87;;;19.00;99.90;;;;;;5051430;28;20202;-63
2021/09/15 06:10:16;;;;;;;19.13;16.47;;;19.00;99.90;;;;;;5066139;28;20208;-64
2021/09/15 06:12:44;;;;;;;19.67;16.90;;;19.00;99.90;;;;;;5069317;28;20611;-64
2021/09/15 06:15:11;;;;;;;17.87;15.90;;;19.00;99.90;;;;;;5051689;28;20599;-63
2021/09/15 06:25:26;;;;;;;19.17;16.57;;;19.10;99.90;;;;;;5432987;22;20295;-65
2021/09/15 06:27:55;;;;;;;19.10;15.70;;;19.10;99.90;;;;;;5032034;28;20214;-65
2021/09/15 06:30:23;;;;;;;18.80;16.10;;;19.10;99.90;;;;;;5031866;28;20212;-65
2021/09/15 06:32:50;;;;;;;18.80;16.80;;;19.10;99.90;;;;;;5031925;28;20216;-66
2021/09/15 06:37:43;;;;;;;19.67;16.77;;;19.10;99.90;;;;;;5089757;22;20236;-65
2021/09/15 06:40:11;;;;;;;18.47;16.57;;;19.10;99.90;;;;;;5031368;28;20233;-64
2021/09/15 06:42:37;;;;;;;21.37;16.73;;;19.10;99.90;;;;;;5032121;28;20202;-65
2021/09/15 06:45:07;;;;;;;18.47;16.47;;;19.10;99.90;;;;;;5031525;28;20714;-65
2021/09/15 06:50:09;;;;;;;20.53;17.00;;;19.10;99.90;;;;;;5407656;22;20237;-66
2021/09/15 06:52:36;;;;;;;19.23;16.87;;;19.10;99.90;;;;;;5031705;28;20272;-65
2021/09/15 06:55:03;;;;;;;16.97;15.17;;;19.20;99.90;;;;;;5031525;28;20206;-65
2021/09/15 06:57:30;;;;;;;17.07;15.20;;;19.20;99.90;;;;;;5063408;22;20230;-64
2021/09/15 06:59:56;;;;;;;17.97;15.80;;;19.20;99.90;;;;;;5031421;28;20291;-63
2021/09/15 07:02:25;;;;;;;17.80;14.70;;;19.20;99.90;;;;;;5031416;28;20214;-64
2021/09/15 07:04:52;;;;;;;15.90;14.27;;;19.20;99.90;;;;;;5031440;28;20244;-64
2021/09/15 07:07:21;;;;;;;18.33;15.20;;;19.30;99.90;;;;;;5247751;22;20314;-64
2021/09/15 07:09:48;;;;;;;17.23;14.40;;;19.20;99.90;;;;;;5011728;28;20207;-63
2021/09/15 07:12:15;;;;;;;18.03;13.87;;;19.30;99.90;;;;;;5017651;28;20202;-63
2021/09/15 07:14:41;;;;;;;17.90;13.50;;;19.30;99.90;;;;;;5030938;28;20264;-63
2021/09/15 07:17:08;;;;;;;15.80;14.10;;;19.20;99.90;;;;;;5030936;28;20760;-63
2021/09/15 07:19:36;;;;;;;15.43;13.33;;;19.30;99.90;;;;;;5034303;28;20288;-63
2021/09/15 07:22:03;;;;;;;14.83;12.70;;;19.30;99.90;;;;;;5035398;28;20670;-64
2021/09/15 07:24:30;;;;;;;14.23;12.83;;;19.40;99.90;;;;;;5035346;28;20229;-64
2021/09/15 07:26:57;;;;;;;14.90;11.93;;;19.40;99.90;;;;;;5034731;28;20714;-64
2021/09/15 07:29:24;;;;;;;12.87;11.57;;;19.50;99.90;;;;;;5035088;28;20199;-63
2021/09/15 07:31:51;;;;;;;14.13;11.53;;;19.60;99.90;;;;;;5035197;28;20236;-64
2021/09/15 07:34:17;;;;;;;13.00;10.97;;;19.60;99.90;;;;;;5034995;28;20264;-64
2021/09/15 07:36:45;;;;;;;14.27;10.30;;;19.80;99.90;;;;;;5034301;28;20742;-65
2021/09/15 07:39:12;;;;;;;12.17;10.97;;;19.90;30.20;;;;;;5034943;28;20214;-65
2021/09/15 07:41:39;;;;;;;14.00;9.80;;;19.90;21.20;;;;;;5034671;28;20240;-64
2021/09/15 07:44:05;;;;;;;12.63;9.90;;;19.90;1.00;;;;;;5034775;28;20218;-65
2021/09/15 07:46:33;;;;;;;11.20;8.97;;;20.00;1.00;;;;;;5034333;28;20234;-65
2021/09/15 07:49:01;;;;;;;10.67;9.57;;;19.90;1.00;;;;;;5034716;28;20214;-64
2021/09/15 07:51:28;;;;;;;10.67;8.73;;;20.00;1.00;;;;;;5034771;28;20245;-64
2021/09/15 07:53:56;;;;;;;11.73;9.30;;;20.00;1.00;;;;;;5034500;28;20621;-64
2021/09/15 07:56:22;;;;;;;10.53;9.43;;;20.00;1.00;;;;;;5033535;28;20253;-64
2021/09/15 07:58:49;;;;;;;12.17;9.27;;;20.10;1.00;;;;;;5034793;28;20203;-64
2021/09/15 08:01:16;;;;;;;11.23;8.70;;;20.20;1.00;;;;;;5034514;28;20230;-64
2021/09/15 08:03:42;;;;;;;9.53;8.00;;;20.20;1.00;;;;;;5034673;28;20666;-67
2021/09/15 08:06:09;;;;;;;10.13;8.40;;;20.30;1.00;;;;;;5033793;28;20614;-66
2021/09/15 08:08:36;;;;;;;11.77;8.10;;;20.30;1.00;;;;;;5034381;28;20214;-66
2021/09/15 08:11:04;;;;;;;10.47;8.07;;;20.40;99.90;;;;;;5034219;28;20202;-67
2021/09/15 08:13:30;;;;;;;10.03;7.77;;;20.50;99.90;;;;;;5034736;28;20206;-61
2021/09/15 08:15:57;;;;;;;10.50;6.53;;;20.50;99.90;;;;;;5033658;28;20844;-68
2021/09/15 08:18:24;;;;;;;10.47;7.53;;;20.50;99.90;;;;;;5034428;28;20206;-69
2021/09/15 08:20:50;;;;;;;9.77;7.50;;;20.40;1.00;;;;;;5034186;28;20226;-63
2021/09/15 08:23:18;;;;;;;10.53;8.07;;;20.40;99.90;;;;;;5033950;28;20276;-64
2021/09/15 08:25:45;;;;;;;9.40;7.17;;;20.40;1.00;;;;;;5062776;22;20354;-68
2021/09/15 08:28:14;;;;;;;8.73;7.40;;;20.30;99.90;;;;;;5014249;28;20211;-67
2021/09/15 08:30:41;;;;;;;7.50;6.73;;;20.20;1.00;;;;;;5013861;28;20254;-65
2021/09/15 08:33:07;;;;;;;7.50;6.67;;;20.20;99.90;;;;;;5013966;28;20203;-61
2021/09/15 08:38:10;;;;;;;11.37;7.40;;;20.20;99.90;;;;;;5793008;22;20193;-62
2021/09/15 08:40:37;;;;;;;10.10;6.80;;;20.20;99.90;;;;;;5013725;28;20227;-61
2021/09/15 08:43:04;;;;;;;7.77;6.67;;;20.20;99.90;;;;;;5014156;28;20199;-62
2021/09/15 08:48:09;;;;;;;11.17;7.40;;;20.20;99.90;;;;;;5417204;22;20242;-61
2021/09/15 08:50:35;;;;;;;7.37;6.60;;;20.20;99.90;;;;;;5033399;28;20679;-61
2021/09/15 08:53:02;;;;;;;8.57;7.40;;;20.20;1.00;;;;;;5033733;28;20208;-62
2021/09/15 08:55:29;;;;;;;8.30;6.93;;;20.10;82.70;;;;;;5032928;28;20263;-62
2021/09/15 08:57:56;;;;;;;10.20;7.27;;;20.00;99.90;;;;;;5033302;28;20252;-62
2021/09/15 09:00:23;;;;;;;8.50;7.70;;;20.00;99.90;;;;;;5032930;28;20292;-62
2021/09/15 09:02:52;;;;;;;10.27;8.53;;;20.00;99.90;;;;;;5033182;28;20233;-62
2021/09/15 09:07:55;;;;;;;12.70;8.13;;;20.00;99.90;;;;;;4817820;22;20234;-62
2021/09/15 09:10:22;;;;;;;9.87;8.63;;;20.00;99.90;;;;;;5033358;28;20206;-61
2021/09/15 09:12:48;;;;;;;10.20;8.17;;;20.00;99.90;;;;;;5033259;28;20581;-62
2021/09/15 09:15:19;;;;;;;9.80;8.80;;;20.10;99.90;;;;;;5032303;28;20902;-62
2021/09/15 09:17:47;;;;;;;10.37;9.27;;;20.10;97.70;;;;;;5033198;28;20221;-62
2021/09/15 09:20:19;;;;;;;11.53;9.20;;;20.10;99.90;;;;;;5033333;28;20317;-61
2021/09/15 09:23:08;;;;;;;10.07;8.97;;;20.10;99.90;;;;;;5033512;28;20248;-61
2021/09/15 09:28:19;;;;;;;9.87;8.87;;;20.10;19.50;;;;;;5334663;22;20257;-62
2021/09/15 09:30:47;;;;;;;11.97;9.90;;;20.10;99.90;;;;;;5033445;28;20202;-63
2021/09/15 09:33:14;;;;;;;11.53;9.60;;;20.10;99.90;;;;;;5033063;28;20205;-62
2021/09/15 09:35:43;;;;;;;10.67;9.63;;;20.20;1.00;;;;;;5032191;28;20222;-63
2021/09/15 09:38:20;;;;;;;10.07;9.07;;;20.20;39.20;;;;;;5032691;28;20233;-63
2021/09/15 09:41:08;;;;;;;14.23;10.23;;;20.20;64.80;;;;;;5032641;28;20562;-63
2021/09/15 09:43:37;;;;;;;16.13;12.27;;;20.20;1.00;;;;;;5032467;28;20194;-63
2021/09/15 09:46:05;;;;;;;10.17;9.07;;;20.30;99.90;;;;;;5047786;22;20405;-63
2021/09/15 09:48:37;;;;;;;11.70;9.43;;;20.30;99.90;;;;;;5032539;28;20211;-62
2021/09/15 09:51:22;;;;;;;10.90;9.67;;;20.20;99.90;;;;;;5032449;28;20213;-63
2021/09/15 09:53:51;;;;;;;11.73;8.90;;;20.20;99.90;;;;;;5032595;28;20222;-63
2021/09/15 09:56:17;;;;;;;13.60;9.43;;;20.20;99.90;;;;;;5031856;28;20742;-62
2021/09/15 09:58:45;;;;;;;13.10;9.50;;;20.20;1.00;;;;;;5032410;28;20210;-63
2021/09/15 10:01:16;;;;;;;10.23;9.23;;;20.30;1.00;;;;;;5032325;28;20714;-62
2021/09/15 10:03:43;;;;;;;11.63;9.60;;;20.30;1.00;;;;;;5032641;28;20233;-62
2021/09/15 10:08:46;;;;;;;12.10;9.77;;;20.10;1.00;;;;;;4573136;22;20606;-62
2021/09/15 10:11:15;;;;;;;11.07;10.07;;;20.00;1.00;;;;;;5032452;28;20199;-63
2021/09/15 10:13:42;;;;;;;13.73;11.00;;;20.00;1.00;;;;;;5032054;28;20206;-62
2021/09/15 10:16:10;;;;;;;10.80;9.63;;;20.00;1.00;;;;;;5031528;28;20234;-62
2021/09/15 10:18:37;;;;;;;12.07;9.97;;;20.00;1.00;;;;;;5032147;28;20205;-62
2021/09/15 10:21:06;;;;;;;11.00;9.90;;;20.00;1.00;;;;;;5032335;28;20234;-63
2021/09/15 10:23:37;;;;;;;12.53;9.80;;;20.00;1.00;;;;;;5032177;28;20210;-62
2021/09/15 10:29:14;;;;;;;11.67;9.77;;;20.00;1.00;;;;;;5101031;22;20284;-62
2021/09/15 10:31:57;;;;;;;12.03;9.80;;;20.10;1.00;;;;;;5032026;28;20251;-62
2021/09/15 10:34:48;;;;;;;11.13;8.77;;;20.10;1.00;;;;;;5031904;28;20209;-62
2021/09/15 10:37:52;;;;;;;10.83;7.60;;;20.10;1.00;;;;;;5531278;22;20238;-62
2021/09/15 10:40:42;;;;;;;13.70;11.07;;;20.20;1.00;;;;;;5031709;28;20321;-63
2021/09/15 10:43:41;;;;;;;10.70;7.83;;;20.30;1.00;;;;;;5031885;28;20299;-62
2021/09/15 10:46:34;;;;;;;7.70;6.03;;;20.40;1.00;;;;;;5163065;22;20232;-62
2021/09/15 10:49:42;;;;;;;8.43;6.00;;;20.60;99.90;;;;;;5031321;28;20633;-62
2021/09/15 10:52:35;;;;;;;8.97;5.90;;;20.70;99.90;;;;;;5031633;28;20202;-62
2021/09/15 10:55:02;;;;;;;6.43;5.70;;;20.70;1.00;;;;;;5031151;28;20255;-62
2021/09/15 10:57:37;;;;;;;6.03;5.27;;;20.70;1.00;;;;;;5774349;22;20245;-62
2021/09/15 11:00:10;;;;;;;5.63;4.83;;;20.60;1.00;;;;;;5031834;28;20210;-62
2021/09/15 11:02:41;;;;;;;5.33;4.83;;;20.50;1.00;;;;;;5031516;28;20217;-62
2021/09/15 11:08:06;;;;;;;4.93;4.53;;;20.40;99.90;;;;;;5457939;22;20268;-62
2021/09/15 11:10:37;;;;;;;5.33;4.37;;;20.40;99.90;;;;;;5031763;28;20202;-62
2021/09/15 11:13:06;;;;;;;5.03;4.40;;;20.30;90.10;;;;;;5031489;28;20260;-62
2021/09/15 11:18:23;;;;;;;4.43;4.03;;;20.30;99.90;;;;;;5921632;22;20189;-62
2021/09/15 11:20:55;;;;;;;6.07;4.30;;;20.30;99.90;;;;;;5031541;28;20230;-62
2021/09/15 11:23:25;;;;;;;5.17;4.10;;;20.30;99.90;;;;;;5031603;28;20206;-61
2021/09/15 11:25:52;;;;;;;4.80;4.30;;;20.40;1.00;;;;;;5030466;28;20226;-62
2021/09/15 11:28:21;;;;;;;4.70;4.07;;;20.50;99.90;;;;;;5031305;28;20218;-62
2021/09/15 11:30:59;;;;;;;5.43;3.83;;;20.50;99.90;;;;;;5031047;28;20202;-62
2021/09/15 11:33:28;;;;;;;4.37;3.97;;;20.60;99.90;;;;;;5031587;28;20293;-62
2021/09/15 11:38:50;;;;;;;4.40;3.87;;;20.60;99.90;;;;;;5348275;22;20313;-60
2021/09/15 11:41:20;;;;;;;4.50;4.10;;;20.50;99.90;;;;;;5030977;28;20226;-62
2021/09/15 11:43:50;;;;;;;7.00;4.00;;;20.50;99.90;;;;;;5031134;28;20689;-62
2021/09/15 11:46:18;;;;;;;4.93;4.13;;;20.60;99.90;;;;;;5168754;22;20226;-62
2021/09/15 11:48:46;;;;;;;4.40;3.87;;;20.60;1.00;;;;;;5031100;28;20670;-62
2021/09/15 11:51:14;;;;;;;5.43;3.97;;;20.70;1.00;;;;;;5031118;28;20202;-62
2021/09/15 11:53:41;;;;;;;9.73;4.63;;;20.70;99.90;;;;;;5030852;28;20768;-63
2021/09/15 11:58:54;;;;;;;4.60;4.10;;;20.70;99.90;;;;;;1013751;22;21262;-61
2021/09/15 12:01:22;;;;;;;8.87;4.00;;;20.80;99.90;;;;;;5030947;28;20750;-62
2021/09/15 12:03:51;;;;;;;6.73;4.20;;;20.80;1.00;;;;;;5030928;28;20260;-62
2021/09/15 12:11:32;;;;;;;5.47;4.30;;;20.80;99.90;;;;;;5153429;22;20245;-61
2021/09/15 12:14:00;;;;;;;5.27;4.77;;;20.90;99.90;;;;;;5034440;28;20704;-62
2021/09/15 12:16:29;;;;;;;6.97;4.50;;;20.90;99.90;;;;;;5033635;28;20323;-63
2021/09/15 12:18:57;;;;;;;4.90;4.40;;;21.00;99.90;;;;;;5034494;28;20622;-63
2021/09/15 12:21:25;;;;;;;5.60;4.73;;;21.10;99.90;;;;;;5034230;28;20303;-62
2021/09/15 12:24:01;;;;;;;4.33;3.90;;;21.10;1.00;;;;;;5034149;28;20207;-61
2021/09/15 12:26:28;;;;;;;5.47;4.97;;;21.10;99.90;;;;;;5033241;28;20222;-62
2021/09/15 12:29:05;;;;;;;5.40;4.80;;;21.10;1.00;;;;;;5034275;28;20264;-62
2021/09/15 12:31:45;;;;;;;7.33;5.50;;;21.10;99.90;;;;;;5033998;28;20210;-62
2021/09/15 12:34:15;;;;;;;5.43;4.83;;;21.00;99.90;;;;;;5034030;28;20248;-63
2021/09/15 12:41:55;;;;;;;7.00;6.00;;;21.00;89.70;;;;;;5274240;22;20239;-62
2021/09/15 12:44:25;;;;;;;6.77;6.17;;;21.00;37.20;;;;;;5073742;28;20209;-63
2021/09/15 12:49:33;;;;;;;8.80;7.90;;;21.10;99.90;;;;;;5345110;22;20230;-62
2021/09/15 12:52:06;;;;;;;9.73;8.83;;;21.20;99.90;;;;;;5033809;28;20557;-62
2021/09/15 12:54:33;;;;;;;8.70;7.80;;;21.30;99.90;;;;;;5033673;28;20217;-62
2021/09/15 13:04:47;;;;;;;10.60;9.47;;;21.70;99.90;;;;;;4838180;22;20391;-61
2021/09/15 13:07:15;;;;;;;10.50;9.47;;;21.70;99.90;;;;;;5064399;22;20234;-60
2021/09/15 13:09:42;;;;;;;10.53;9.37;;;21.60;99.90;;;;;;5033396;28;20206;-62
2021/09/15 13:12:09;;;;;;;11.50;10.30;;;21.50;1.00;;;;;;5033459;28;20210;-60
2021/09/15 13:14:36;;;;;;;11.13;10.03;;;21.60;1.00;;;;;;5033478;28;20238;-60
2021/09/15 13:17:02;;;;;;;9.93;9.03;;;21.60;99.90;;;;;;5032651;28;20230;-61
2021/09/15 13:19:29;;;;;;;9.33;8.07;;;21.70;99.90;;;;;;5033480;28;20217;-61
2021/09/15 13:21:57;;;;;;;9.13;8.00;;;21.70;1.00;;;;;;5033391;28;20226;-61
2021/09/15 13:24:24;;;;;;;8.73;7.83;;;21.50;1.00;;;;;;5033565;28;20206;-61
2021/09/15 13:27:12;;;;;;;10.60;9.50;;;21.50;29.00;;;;;;5040052;22;20234;-61
2021/09/15 13:29:40;;;;;;;9.83;8.83;;;21.50;1.00;;;;;;5033248;28;20210;-61
2021/09/15 13:32:09;;;;;;;11.20;8.50;;;21.40;1.00;;;;;;5033248;28;20214;-61
2021/09/15 13:34:36;;;;;;;10.43;9.33;;;21.50;99.90;;;;;;5032693;28;20210;-60
2021/09/15 13:37:04;;;;;;;10.30;9.23;;;21.50;1.00;;;;;;5032384;28;20236;-60
2021/09/15 13:39:31;;;;;;;12.27;10.60;;;21.60;99.90;;;;;;5033001;28;20230;-62
2021/09/15 13:41:58;;;;;;;13.07;11.13;;;21.70;23.00;;;;;;5032893;28;20226;-61
2021/09/15 13:44:26;;;;;;;14.73;12.53;;;21.70;99.90;;;;;;5032819;28;20206;-60
2021/09/15 13:52:08;;;;;;;14.73;13.13;;;21.80;25.90;;;;;;5075394;22;20241;-61
2021/09/15 13:54:35;;;;;;;16.83;13.30;;;21.90;99.90;;;;;;5032215;28;20298;-61
2021/09/15 13:59:37;;;;;;;12.47;11.07;;;22.10;1.00;;;;;;5049976;22;20233;-61
2021/09/15 14:02:05;;;;;;;12.73;11.43;;;22.10;99.90;;;;;;5032391;28;20599;-61